sensor_id;sensor_type;location;lat;lon;timestamp;pressure;altitude;pressure_sealevel;temperature;humidity
60852;BME280;48553;50.766;2.900;2022-10-16T00:00:00;100278.63;;;14.10;74.76
60852;BME280;48553;50.766;2.900;2022-10-16T00:03:01;100275.06;;;14.09;74.66
60852;BME280;48553;50.766;2.900;2022-10-16T00:06:03;100268.34;;;14.07;74.88
60852;BME280;48553;50.766;2.900;2022-10-16T00:09:03;100283.31;;;14.06;74.88
60852;BME280;48553;50.766;2.900;2022-10-16T00:12:04;100276.19;;;14.05;74.88
60852;BME280;48553;50.766;2.900;2022-10-16T00:15:07;100285.25;;;14.05;74.98
60852;BME280;48553;50.766;2.900;2022-10-16T00:18:07;100280.13;;;14.04;75.16
60852;BME280;48553;50.766;2.900;2022-10-16T00:21:13;100284.03;;;14.03;75.37
60852;BME280;48553;50.766;2.900;2022-10-16T00:24:14;100280.47;;;14.02;75.08
60852;BME280;48553;50.766;2.900;2022-10-16T00:27:15;100273.00;;;14.03;75.18
60852;BME280;48553;50.766;2.900;2022-10-16T00:30:15;100278.50;;;14.03;75.14
60852;BME280;48553;50.766;2.900;2022-10-16T00:33:15;100283.16;;;13.98;75.39
60852;BME280;48553;50.766;2.900;2022-10-16T00:36:19;100280.81;;;13.97;75.34
60852;BME280;48553;50.766;2.900;2022-10-16T00:39:19;100284.72;;;13.96;75.36
60852;BME280;48553;50.766;2.900;2022-10-16T00:42:20;100279.94;;;13.93;75.26
60852;BME280;48553;50.766;2.900;2022-10-16T00:45:20;100286.25;;;13.93;75.41
60852;BME280;48553;50.766;2.900;2022-10-16T00:48:21;100285.88;;;13.95;75.45
60852;BME280;48553;50.766;2.900;2022-10-16T00:51:27;100275.97;;;13.90;75.61
60852;BME280;48553;50.766;2.900;2022-10-16T00:54:31;100275.22;;;13.93;75.54
60852;BME280;48553;50.766;2.900;2022-10-16T00:57:32;100275.19;;;13.90;75.98
60852;BME280;48553;50.766;2.900;2022-10-16T01:00:33;100284.59;;;13.89;75.85
60852;BME280;48553;50.766;2.900;2022-10-16T01:03:36;100288.91;;;13.86;76.00
60852;BME280;48553;50.766;2.900;2022-10-16T01:06:46;100288.09;;;13.86;75.93
60852;BME280;48553;50.766;2.900;2022-10-16T01:13:18;100295.94;;;13.84;76.02
60852;BME280;48553;50.766;2.900;2022-10-16T01:17:00;100296.72;;;13.84;76.04
60852;BME280;48553;50.766;2.900;2022-10-16T01:23:27;100290.78;;;13.82;76.25
60852;BME280;48553;50.766;2.900;2022-10-16T01:30:39;100288.00;;;13.78;76.21
60852;BME280;48553;50.766;2.900;2022-10-16T01:33:19;100284.38;;;13.74;76.22
60852;BME280;48553;50.766;2.900;2022-10-16T01:36:25;100295.41;;;13.74;76.35
60852;BME280;48553;50.766;2.900;2022-10-16T01:39:30;100296.56;;;13.73;76.41
60852;BME280;48553;50.766;2.900;2022-10-16T01:42:36;100300.47;;;13.72;76.56
60852;BME280;48553;50.766;2.900;2022-10-16T01:45:38;100291.03;;;13.73;76.41
60852;BME280;48553;50.766;2.900;2022-10-16T01:48:39;100288.72;;;13.75;76.41
60852;BME280;48553;50.766;2.900;2022-10-16T01:51:43;100288.69;;;13.72;76.21
60852;BME280;48553;50.766;2.900;2022-10-16T01:54:47;100283.53;;;13.70;76.50
60852;BME280;48553;50.766;2.900;2022-10-16T01:57:51;100286.63;;;13.69;76.47
60852;BME280;48553;50.766;2.900;2022-10-16T02:00:54;100284.69;;;13.69;76.46
60852;BME280;48553;50.766;2.900;2022-10-16T02:03:58;100285.84;;;13.68;76.38
60852;BME280;48553;50.766;2.900;2022-10-16T02:07:00;100295.66;;;13.66;76.57
60852;BME280;48553;50.766;2.900;2022-10-16T02:10:01;100301.16;;;13.66;76.58
60852;BME280;48553;50.766;2.900;2022-10-16T02:13:22;100297.53;;;13.62;76.70
60852;BME280;48553;50.766;2.900;2022-10-16T02:16:37;100295.22;;;13.64;76.63
60852;BME280;48553;50.766;2.900;2022-10-16T02:19:38;100306.66;;;13.66;76.78
60852;BME280;48553;50.766;2.900;2022-10-16T02:22:42;100305.81;;;13.62;76.67
60852;BME280;48553;50.766;2.900;2022-10-16T02:25:43;100310.53;;;13.61;76.67
60852;BME280;48553;50.766;2.900;2022-10-16T02:28:48;100303.00;;;13.58;77.02
60852;BME280;48553;50.766;2.900;2022-10-16T02:31:59;100314.81;;;13.58;76.82
60852;BME280;48553;50.766;2.900;2022-10-16T02:35:01;100311.66;;;13.60;76.83
60852;BME280;48553;50.766;2.900;2022-10-16T02:38:03;100315.94;;;13.57;76.74
60852;BME280;48553;50.766;2.900;2022-10-16T02:41:04;100315.16;;;13.57;76.79
60852;BME280;48553;50.766;2.900;2022-10-16T02:44:05;100332.03;;;13.55;76.90
60852;BME280;48553;50.766;2.900;2022-10-16T02:47:05;100349.72;;;13.54;76.80
60852;BME280;48553;50.766;2.900;2022-10-16T02:50:06;100342.63;;;13.53;76.51
60852;BME280;48553;50.766;2.900;2022-10-16T02:53:07;100338.28;;;13.52;76.52
60852;BME280;48553;50.766;2.900;2022-10-16T02:56:07;100333.56;;;13.53;76.52
60852;BME280;48553;50.766;2.900;2022-10-16T02:59:08;100335.88;;;13.51;76.54
60852;BME280;48553;50.766;2.900;2022-10-16T03:02:08;100339.81;;;13.50;76.51
60852;BME280;48553;50.766;2.900;2022-10-16T03:05:10;100337.44;;;13.48;76.64
60852;BME280;48553;50.766;2.900;2022-10-16T03:08:11;100340.56;;;13.47;76.77
60852;BME280;48553;50.766;2.900;2022-10-16T03:11:11;100332.31;;;13.47;76.74
60852;BME280;48553;50.766;2.900;2022-10-16T03:14:11;100344.47;;;13.46;76.67
60852;BME280;48553;50.766;2.900;2022-10-16T03:17:12;100355.13;;;13.47;76.50
60852;BME280;48553;50.766;2.900;2022-10-16T03:20:13;100353.91;;;13.45;76.54
60852;BME280;48553;50.766;2.900;2022-10-16T03:23:13;100359.75;;;13.43;76.66
60852;BME280;48553;50.766;2.900;2022-10-16T03:26:14;100362.06;;;13.41;76.56
60852;BME280;48553;50.766;2.900;2022-10-16T03:29:14;100345.13;;;13.39;76.58
60852;BME280;48553;50.766;2.900;2022-10-16T03:32:15;100351.06;;;13.41;76.69
60852;BME280;48553;50.766;2.900;2022-10-16T03:35:15;100351.41;;;13.40;76.66
60852;BME280;48553;50.766;2.900;2022-10-16T03:38:15;100363.97;;;13.37;76.71
60852;BME280;48553;50.766;2.900;2022-10-16T03:41:16;100361.94;;;13.34;76.75
60852;BME280;48553;50.766;2.900;2022-10-16T03:44:16;100361.94;;;13.34;76.82
60852;BME280;48553;50.766;2.900;2022-10-16T03:47:17;100363.91;;;13.33;76.94
60852;BME280;48553;50.766;2.900;2022-10-16T03:50:21;100366.66;;;13.33;76.79
60852;BME280;48553;50.766;2.900;2022-10-16T03:53:22;100373.75;;;13.34;76.68
60852;BME280;48553;50.766;2.900;2022-10-16T03:56:22;100374.47;;;13.31;76.60
60852;BME280;48553;50.766;2.900;2022-10-16T03:59:23;100364.25;;;13.32;76.71
60852;BME280;48553;50.766;2.900;2022-10-16T04:02:23;100372.88;;;13.30;76.76
60852;BME280;48553;50.766;2.900;2022-10-16T04:05:23;100373.25;;;13.29;76.81
60852;BME280;48553;50.766;2.900;2022-10-16T04:08:24;100378.75;;;13.29;76.85
60852;BME280;48553;50.766;2.900;2022-10-16T04:11:24;100374.41;;;13.28;76.87
60852;BME280;48553;50.766;2.900;2022-10-16T04:14:25;100377.84;;;13.25;76.89
60852;BME280;48553;50.766;2.900;2022-10-16T04:17:25;100389.22;;;13.23;76.91
60852;BME280;48553;50.766;2.900;2022-10-16T04:20:26;100398.25;;;13.24;76.76
60852;BME280;48553;50.766;2.900;2022-10-16T04:23:26;100397.13;;;13.25;76.84
60852;BME280;48553;50.766;2.900;2022-10-16T04:26:26;100402.19;;;13.23;76.77
60852;BME280;48553;50.766;2.900;2022-10-16T04:29:27;100408.47;;;13.23;76.78
60852;BME280;48553;50.766;2.900;2022-10-16T04:32:27;100410.78;;;13.21;76.62
60852;BME280;48553;50.766;2.900;2022-10-16T04:35:28;100412.75;;;13.21;77.16
60852;BME280;48553;50.766;2.900;2022-10-16T04:38:28;100419.44;;;13.20;77.24
60852;BME280;48553;50.766;2.900;2022-10-16T04:41:29;100422.53;;;13.18;77.40
60852;BME280;48553;50.766;2.900;2022-10-16T04:44:29;100429.25;;;13.21;77.40
60852;BME280;48553;50.766;2.900;2022-10-16T04:47:30;100428.13;;;13.22;77.50
60852;BME280;48553;50.766;2.900;2022-10-16T04:50:30;100427.75;;;13.23;77.68
60852;BME280;48553;50.766;2.900;2022-10-16T04:53:30;100426.16;;;13.22;77.54
60852;BME280;48553;50.766;2.900;2022-10-16T04:56:31;100425.72;;;13.20;77.70
60852;BME280;48553;50.766;2.900;2022-10-16T04:59:31;100430.44;;;13.20;77.68
60852;BME280;48553;50.766;2.900;2022-10-16T05:02:32;100438.69;;;13.20;77.60
60852;BME280;48553;50.766;2.900;2022-10-16T05:05:33;100444.56;;;13.18;77.68
60852;BME280;48553;50.766;2.900;2022-10-16T05:08:34;100443.75;;;13.18;77.69
60852;BME280;48553;50.766;2.900;2022-10-16T05:11:34;100448.44;;;13.17;77.74
60852;BME280;48553;50.766;2.900;2022-10-16T05:14:35;100455.13;;;13.16;77.58
60852;BME280;48553;50.766;2.900;2022-10-16T05:17:35;100460.97;;;13.14;77.56
60852;BME280;48553;50.766;2.900;2022-10-16T05:20:36;100471.19;;;13.14;77.53
60852;BME280;48553;50.766;2.900;2022-10-16T05:23:36;100466.03;;;13.12;77.48
60852;BME280;48553;50.766;2.900;2022-10-16T05:26:36;100474.28;;;13.12;77.70
60852;BME280;48553;50.766;2.900;2022-10-16T05:29:37;100481.41;;;13.13;77.30
60852;BME280;48553;50.766;2.900;2022-10-16T05:32:37;100479.00;;;13.12;77.42
60852;BME280;48553;50.766;2.900;2022-10-16T05:35:38;100482.13;;;13.10;77.55
60852;BME280;48553;50.766;2.900;2022-10-16T05:38:38;100493.50;;;13.09;77.45
60852;BME280;48553;50.766;2.900;2022-10-16T05:41:38;100491.53;;;13.09;77.42
60852;BME280;48553;50.766;2.900;2022-10-16T05:44:39;100499.78;;;13.09;77.41
60852;BME280;48553;50.766;2.900;2022-10-16T05:47:39;100505.56;;;13.04;77.40
60852;BME280;48553;50.766;2.900;2022-10-16T05:50:40;100506.00;;;13.06;77.23
60852;BME280;48553;50.766;2.900;2022-10-16T05:53:40;100513.03;;;13.04;77.28
60852;BME280;48553;50.766;2.900;2022-10-16T05:56:41;100520.47;;;13.03;77.28
60852;BME280;48553;50.766;2.900;2022-10-16T05:59:42;100517.38;;;13.05;77.00
60852;BME280;48553;50.766;2.900;2022-10-16T06:02:43;100525.97;;;13.03;76.98
60852;BME280;48553;50.766;2.900;2022-10-16T06:05:43;100521.19;;;13.00;76.94
60852;BME280;48553;50.766;2.900;2022-10-16T06:08:45;100532.19;;;13.00;76.93
60852;BME280;48553;50.766;2.900;2022-10-16T06:11:46;100534.16;;;13.00;77.19
60852;BME280;48553;50.766;2.900;2022-10-16T06:14:46;100537.25;;;12.98;76.96
60852;BME280;48553;50.766;2.900;2022-10-16T06:17:47;100531.75;;;12.98;76.88
60852;BME280;48553;50.766;2.900;2022-10-16T06:20:47;100542.41;;;13.00;76.71
60852;BME280;48553;50.766;2.900;2022-10-16T06:23:48;100541.97;;;12.98;76.74
60852;BME280;48553;50.766;2.900;2022-10-16T06:26:48;100546.22;;;12.95;76.71
60852;BME280;48553;50.766;2.900;2022-10-16T06:29:48;100545.78;;;12.93;76.82
60852;BME280;48553;50.766;2.900;2022-10-16T06:32:49;100546.56;;;12.93;76.72
60852;BME280;48553;50.766;2.900;2022-10-16T06:35:49;100550.50;;;12.92;76.75
60852;BME280;48553;50.766;2.900;2022-10-16T06:38:50;100567.78;;;12.93;76.96
60852;BME280;48553;50.766;2.900;2022-10-16T06:41:50;100572.22;;;12.98;76.74
60852;BME280;48553;50.766;2.900;2022-10-16T06:44:51;100580.94;;;13.00;76.51
60852;BME280;48553;50.766;2.900;2022-10-16T06:47:51;100592.00;;;13.03;76.62
60852;BME280;48553;50.766;2.900;2022-10-16T06:51:13;100590.94;;;13.08;76.45
60852;BME280;48553;50.766;2.900;2022-10-16T06:54:15;100589.78;;;13.09;76.51
60852;BME280;48553;50.766;2.900;2022-10-16T06:57:16;100597.41;;;13.15;76.33
60852;BME280;48553;50.766;2.900;2022-10-16T07:00:16;100597.56;;;13.23;76.14
60852;BME280;48553;50.766;2.900;2022-10-16T07:03:16;100603.53;;;13.25;76.16
60852;BME280;48553;50.766;2.900;2022-10-16T07:06:19;100612.78;;;13.32;76.00
60852;BME280;48553;50.766;2.900;2022-10-16T07:09:20;100610.19;;;13.40;75.98
60852;BME280;48553;50.766;2.900;2022-10-16T07:12:20;100617.44;;;13.48;75.63
60852;BME280;48553;50.766;2.900;2022-10-16T07:15:21;100623.91;;;13.55;75.84
60852;BME280;48553;50.766;2.900;2022-10-16T07:18:21;100628.06;;;13.65;75.54
60852;BME280;48553;50.766;2.900;2022-10-16T07:21:28;100643.53;;;13.70;75.56
60852;BME280;48553;50.766;2.900;2022-10-16T07:24:29;100636.41;;;13.69;75.74
60852;BME280;48553;50.766;2.900;2022-10-16T07:27:30;100646.38;;;13.57;76.32
60852;BME280;48553;50.766;2.900;2022-10-16T07:30:34;100647.38;;;13.49;76.97
60852;BME280;48553;50.766;2.900;2022-10-16T07:33:37;100652.56;;;13.70;76.50
60852;BME280;48553;50.766;2.900;2022-10-16T07:36:38;100658.53;;;13.92;75.58
60852;BME280;48553;50.766;2.900;2022-10-16T07:39:39;100666.75;;;14.08;75.08
60852;BME280;48553;50.766;2.900;2022-10-16T07:42:39;100666.97;;;14.18;74.95
60852;BME280;48553;50.766;2.900;2022-10-16T07:45:49;100658.94;;;13.90;75.72
60852;BME280;48553;50.766;2.900;2022-10-16T07:48:50;100668.63;;;13.84;76.24
60852;BME280;48553;50.766;2.900;2022-10-16T07:51:51;100676.97;;;14.07;76.19
60852;BME280;48553;50.766;2.900;2022-10-16T07:54:51;100678.81;;;14.19;75.42
60852;BME280;48553;50.766;2.900;2022-10-16T07:57:52;100682.31;;;14.35;75.19
60852;BME280;48553;50.766;2.900;2022-10-16T08:00:52;100688.84;;;14.47;74.80
60852;BME280;48553;50.766;2.900;2022-10-16T08:03:52;100688.19;;;14.34;75.06
60852;BME280;48553;50.766;2.900;2022-10-16T08:06:53;100683.94;;;14.56;74.72
60852;BME280;48553;50.766;2.900;2022-10-16T08:09:54;100678.97;;;14.65;74.19
60852;BME280;48553;50.766;2.900;2022-10-16T08:12:56;100688.91;;;14.70;74.35
60852;BME280;48553;50.766;2.900;2022-10-16T08:15:57;100694.69;;;14.84;73.94
60852;BME280;48553;50.766;2.900;2022-10-16T08:18:58;100695.59;;;14.92;73.65
60852;BME280;48553;50.766;2.900;2022-10-16T08:21:58;100702.94;;;15.03;73.34
60852;BME280;48553;50.766;2.900;2022-10-16T08:24:58;100704.72;;;15.15;73.03
60852;BME280;48553;50.766;2.900;2022-10-16T08:27:59;100707.72;;;15.30;72.97
60852;BME280;48553;50.766;2.900;2022-10-16T08:31:10;100708.31;;;15.42;72.83
60852;BME280;48553;50.766;2.900;2022-10-16T08:34:11;100721.91;;;15.55;72.97
60852;BME280;48553;50.766;2.900;2022-10-16T08:37:12;100715.47;;;15.70;72.62
60852;BME280;48553;50.766;2.900;2022-10-16T08:40:24;100719.63;;;15.83;72.54
60852;BME280;48553;50.766;2.900;2022-10-16T08:49:41;100735.59;;;16.24;72.11
60852;BME280;48553;50.766;2.900;2022-10-16T08:52:44;100733.38;;;16.37;72.29
60852;BME280;48553;50.766;2.900;2022-10-16T08:55:52;100739.84;;;16.48;72.15
60852;BME280;48553;50.766;2.900;2022-10-16T08:58:54;100747.53;;;16.62;71.96
60852;BME280;48553;50.766;2.900;2022-10-16T09:01:54;100745.25;;;16.71;71.99
60852;BME280;48553;50.766;2.900;2022-10-16T09:08:07;100753.44;;;16.90;71.54
60852;BME280;48553;50.766;2.900;2022-10-16T09:14:58;100754.47;;;17.16;71.29
60852;BME280;48553;50.766;2.900;2022-10-16T09:18:19;100757.00;;;17.28;71.13
60852;BME280;48553;50.766;2.900;2022-10-16T09:21:35;100757.06;;;17.39;70.92
60852;BME280;48553;50.766;2.900;2022-10-16T09:24:36;100756.72;;;17.44;70.96
60852;BME280;48553;50.766;2.900;2022-10-16T09:27:37;100760.41;;;17.56;70.54
60852;BME280;48553;50.766;2.900;2022-10-16T09:30:38;100762.84;;;17.68;70.55
60852;BME280;48553;50.766;2.900;2022-10-16T09:33:40;100763.31;;;17.77;70.14
60852;BME280;48553;50.766;2.900;2022-10-16T09:36:43;100759.09;;;17.90;70.22
60852;BME280;48553;50.766;2.900;2022-10-16T09:39:46;100767.91;;;18.03;69.85
60852;BME280;48553;50.766;2.900;2022-10-16T09:42:47;100767.53;;;18.12;69.68
60852;BME280;48553;50.766;2.900;2022-10-16T09:45:59;100756.94;;;18.28;69.82
60852;BME280;48553;50.766;2.900;2022-10-16T09:49:02;100754.63;;;18.41;69.52
60852;BME280;48553;50.766;2.900;2022-10-16T09:52:14;100754.69;;;18.52;69.25
60852;BME280;48553;50.766;2.900;2022-10-16T09:55:17;100752.34;;;18.68;68.80
60852;BME280;48553;50.766;2.900;2022-10-16T09:58:21;100755.22;;;18.83;68.45
60852;BME280;48553;50.766;2.900;2022-10-16T10:01:27;100765.16;;;18.91;68.24
60852;BME280;48553;50.766;2.900;2022-10-16T10:04:39;100759.63;;;19.02;68.10
60852;BME280;48553;50.766;2.900;2022-10-16T10:07:43;100762.00;;;19.07;68.15
60852;BME280;48553;50.766;2.900;2022-10-16T10:10:48;100766.41;;;19.18;67.66
60852;BME280;48553;50.766;2.900;2022-10-16T10:13:48;100773.97;;;19.32;67.21
60852;BME280;48553;50.766;2.900;2022-10-16T10:16:50;100770.41;;;19.43;67.52
60852;BME280;48553;50.766;2.900;2022-10-16T10:19:55;100767.22;;;19.55;66.99
60852;BME280;48553;50.766;2.900;2022-10-16T10:22:57;100756.09;;;19.66;66.78
60852;BME280;48553;50.766;2.900;2022-10-16T10:29:08;100750.56;;;19.84;66.60
60852;BME280;48553;50.766;2.900;2022-10-16T10:32:36;100758.50;;;19.92;66.44
60852;BME280;48553;50.766;2.900;2022-10-16T10:39:22;100767.56;;;20.25;65.78
60852;BME280;48553;50.766;2.900;2022-10-16T10:42:49;100773.94;;;20.33;65.83
60852;BME280;48553;50.766;2.900;2022-10-16T10:45:56;100773.47;;;20.45;66.04
60852;BME280;48553;50.766;2.900;2022-10-16T10:52:53;100762.66;;;20.76;65.11
60852;BME280;48553;50.766;2.900;2022-10-16T10:56:13;100767.00;;;20.77;65.55
60852;BME280;48553;50.766;2.900;2022-10-16T11:02:40;100763.72;;;20.96;64.27
60852;BME280;48553;50.766;2.900;2022-10-16T11:05:46;100773.63;;;21.08;64.51
60852;BME280;48553;50.766;2.900;2022-10-16T11:08:53;100775.13;;;21.20;64.94
60852;BME280;48553;50.766;2.900;2022-10-16T11:12:01;100780.22;;;21.32;63.29
60852;BME280;48553;50.766;2.900;2022-10-16T11:15:12;100768.97;;;21.50;62.92
60852;BME280;48553;50.766;2.900;2022-10-16T11:18:49;100765.31;;;21.60;61.99
60852;BME280;48553;50.766;2.900;2022-10-16T11:28:20;100770.41;;;21.69;62.10
60852;BME280;48553;50.766;2.900;2022-10-16T11:31:37;100756.69;;;21.85;61.94
60852;BME280;48553;50.766;2.900;2022-10-16T11:34:47;100763.84;;;21.86;62.63
60852;BME280;48553;50.766;2.900;2022-10-16T11:37:51;100765.47;;;21.87;62.06
60852;BME280;48553;50.766;2.900;2022-10-16T11:40:58;100773.09;;;21.80;62.47
60852;BME280;48553;50.766;2.900;2022-10-16T11:56:44;100784.19;;;21.42;62.29
60852;BME280;48553;50.766;2.900;2022-10-16T11:59:58;100765.38;;;21.50;61.86
60852;BME280;48553;50.766;2.900;2022-10-16T12:03:35;100762.06;;;21.65;60.97
60852;BME280;48553;50.766;2.900;2022-10-16T12:06:47;100766.06;;;21.64;61.62
60852;BME280;48553;50.766;2.900;2022-10-16T12:09:50;100770.91;;;21.57;61.09
60852;BME280;48553;50.766;2.900;2022-10-16T12:12:50;100769.00;;;21.46;61.78
60852;BME280;48553;50.766;2.900;2022-10-16T12:15:51;100749.91;;;21.41;62.25
60852;BME280;48553;50.766;2.900;2022-10-16T12:19:12;100743.44;;;21.52;62.11
60852;BME280;48553;50.766;2.900;2022-10-16T12:22:18;100743.22;;;21.77;60.51
60852;BME280;48553;50.766;2.900;2022-10-16T12:25:21;100738.78;;;21.83;60.67
60852;BME280;48553;50.766;2.900;2022-10-16T12:28:27;100744.06;;;21.74;60.65
60852;BME280;48553;50.766;2.900;2022-10-16T12:31:37;100737.94;;;21.89;60.90
60852;BME280;48553;50.766;2.900;2022-10-16T12:34:44;100745.88;;;21.91;60.77
60852;BME280;48553;50.766;2.900;2022-10-16T12:37:45;100728.25;;;21.98;61.06
60852;BME280;48553;50.766;2.900;2022-10-16T12:40:55;100744.69;;;21.92;60.73
60852;BME280;48553;50.766;2.900;2022-10-16T12:43:57;100740.84;;;21.75;61.42
60852;BME280;48553;50.766;2.900;2022-10-16T12:46:58;100741.81;;;21.58;60.90
60852;BME280;48553;50.766;2.900;2022-10-16T12:49:59;100736.72;;;21.49;60.97
60852;BME280;48553;50.766;2.900;2022-10-16T12:53:00;100733.56;;;21.40;60.45
60852;BME280;48553;50.766;2.900;2022-10-16T12:56:22;100731.22;;;21.35;60.84
60852;BME280;48553;50.766;2.900;2022-10-16T13:02:56;100742.88;;;21.19;61.77
60852;BME280;48553;50.766;2.900;2022-10-16T13:19:51;100716.25;;;21.11;62.19
60852;BME280;48553;50.766;2.900;2022-10-16T13:23:21;100731.44;;;21.02;62.04
60852;BME280;48553;50.766;2.900;2022-10-16T13:26:42;100730.34;;;20.85;62.05
60852;BME280;48553;50.766;2.900;2022-10-16T13:29:52;100718.09;;;20.76;62.74
60852;BME280;48553;50.766;2.900;2022-10-16T13:36:00;100736.44;;;20.62;61.66
60852;BME280;48553;50.766;2.900;2022-10-16T13:42:14;100747.56;;;20.66;62.08
60852;BME280;48553;50.766;2.900;2022-10-16T13:45:24;100736.44;;;20.62;61.83
60852;BME280;48553;50.766;2.900;2022-10-16T13:48:25;100726.91;;;20.60;61.91
60852;BME280;48553;50.766;2.900;2022-10-16T13:51:26;100722.88;;;20.68;61.13
60852;BME280;48553;50.766;2.900;2022-10-16T13:54:27;100747.97;;;20.64;61.54
60852;BME280;48553;50.766;2.900;2022-10-16T13:57:29;100734.84;;;20.65;60.83
60852;BME280;48553;50.766;2.900;2022-10-16T14:00:29;100744.81;;;20.52;61.41
60852;BME280;48553;50.766;2.900;2022-10-16T14:03:30;100734.50;;;20.41;61.53
60852;BME280;48553;50.766;2.900;2022-10-16T14:06:32;100746.09;;;20.29;61.91
60852;BME280;48553;50.766;2.900;2022-10-16T14:09:33;100751.25;;;20.27;61.65
60852;BME280;48553;50.766;2.900;2022-10-16T14:12:35;100740.94;;;20.20;62.27
60852;BME280;48553;50.766;2.900;2022-10-16T14:15:36;100753.69;;;20.14;62.73
60852;BME280;48553;50.766;2.900;2022-10-16T14:18:38;100754.09;;;20.02;62.32
60852;BME280;48553;50.766;2.900;2022-10-16T14:21:40;100750.53;;;19.98;62.52
60852;BME280;48553;50.766;2.900;2022-10-16T14:24:41;100734.25;;;19.89;63.23
60852;BME280;48553;50.766;2.900;2022-10-16T14:27:41;100735.88;;;19.83;62.61
60852;BME280;48553;50.766;2.900;2022-10-16T14:30:56;100733.50;;;19.74;63.86
60852;BME280;48553;50.766;2.900;2022-10-16T14:33:57;100735.88;;;19.69;64.01
60852;BME280;48553;50.766;2.900;2022-10-16T14:37:10;100743.41;;;19.65;63.92
60852;BME280;48553;50.766;2.900;2022-10-16T14:40:15;100744.19;;;19.54;63.19
60852;BME280;48553;50.766;2.900;2022-10-16T14:43:36;100743.81;;;19.49;63.95
60852;BME280;48553;50.766;2.900;2022-10-16T14:46:39;100741.03;;;19.45;64.46
60852;BME280;48553;50.766;2.900;2022-10-16T14:49:41;100756.09;;;19.40;64.29
60852;BME280;48553;50.766;2.900;2022-10-16T14:52:42;100758.50;;;19.35;64.61
60852;BME280;48553;50.766;2.900;2022-10-16T14:55:44;100746.19;;;19.29;64.61
60852;BME280;48553;50.766;2.900;2022-10-16T14:58:44;100737.44;;;19.23;64.97
60852;BME280;48553;50.766;2.900;2022-10-16T15:01:45;100730.28;;;19.18;64.92
60852;BME280;48553;50.766;2.900;2022-10-16T15:04:46;100731.06;;;19.15;65.23
60852;BME280;48553;50.766;2.900;2022-10-16T15:07:47;100714.41;;;19.08;65.10
60852;BME280;48553;50.766;2.900;2022-10-16T15:10:49;100712.78;;;19.07;65.46
60852;BME280;48553;50.766;2.900;2022-10-16T15:13:49;100721.16;;;19.04;65.67
60852;BME280;48553;50.766;2.900;2022-10-16T15:16:50;100726.28;;;19.02;65.91
60852;BME280;48553;50.766;2.900;2022-10-16T15:19:50;100714.78;;;18.92;65.96
60852;BME280;48553;50.766;2.900;2022-10-16T15:22:51;100713.59;;;18.90;65.87
60852;BME280;48553;50.766;2.900;2022-10-16T15:25:54;100715.56;;;18.86;66.21
60852;BME280;48553;50.766;2.900;2022-10-16T15:28:54;100713.16;;;18.81;66.21
60852;BME280;48553;50.766;2.900;2022-10-16T15:31:55;100694.50;;;18.77;66.54
60852;BME280;48553;50.766;2.900;2022-10-16T15:34:55;100696.84;;;18.72;66.42
60852;BME280;48553;50.766;2.900;2022-10-16T15:37:56;100696.81;;;18.68;66.44
60852;BME280;48553;50.766;2.900;2022-10-16T15:40:57;100704.75;;;18.66;66.39
60852;BME280;48553;50.766;2.900;2022-10-16T15:43:57;100707.13;;;18.64;66.68
60852;BME280;48553;50.766;2.900;2022-10-16T15:46:58;100698.78;;;18.61;66.63
60852;BME280;48553;50.766;2.900;2022-10-16T15:49:58;100700.38;;;18.58;66.80
60852;BME280;48553;50.766;2.900;2022-10-16T15:52:59;100720.56;;;18.55;66.87
60852;BME280;48553;50.766;2.900;2022-10-16T15:56:06;100739.59;;;18.53;67.03
60852;BME280;48553;50.766;2.900;2022-10-16T15:59:07;100744.38;;;18.49;67.12
60852;BME280;48553;50.766;2.900;2022-10-16T16:02:08;100746.72;;;18.47;67.36
60852;BME280;48553;50.766;2.900;2022-10-16T16:05:10;100735.59;;;18.43;67.45
60852;BME280;48553;50.766;2.900;2022-10-16T16:08:11;100746.28;;;18.41;67.46
60852;BME280;48553;50.766;2.900;2022-10-16T16:11:15;100742.31;;;18.39;67.64
60852;BME280;48553;50.766;2.900;2022-10-16T16:14:16;100740.34;;;18.35;67.69
60852;BME280;48553;50.766;2.900;2022-10-16T16:17:16;100756.97;;;18.35;67.72
60852;BME280;48553;50.766;2.900;2022-10-16T16:20:17;100758.94;;;18.31;67.75
60852;BME280;48553;50.766;2.900;2022-10-16T16:23:17;100750.59;;;18.28;67.83
60852;BME280;48553;50.766;2.900;2022-10-16T16:26:23;100745.81;;;18.25;67.97
60852;BME280;48553;50.766;2.900;2022-10-16T16:29:27;100751.75;;;18.23;68.11
60852;BME280;48553;50.766;2.900;2022-10-16T16:32:27;100737.09;;;18.19;68.12
60852;BME280;48553;50.766;2.900;2022-10-16T16:35:28;100732.72;;;18.18;68.15
60852;BME280;48553;50.766;2.900;2022-10-16T16:38:28;100733.50;;;18.15;68.16
60852;BME280;48553;50.766;2.900;2022-10-16T16:41:30;100739.81;;;18.12;68.35
60852;BME280;48553;50.766;2.900;2022-10-16T16:44:30;100741.78;;;18.08;68.36
60852;BME280;48553;50.766;2.900;2022-10-16T16:47:31;100735.00;;;18.05;68.47
60852;BME280;48553;50.766;2.900;2022-10-16T16:50:35;100748.50;;;18.03;68.73
60852;BME280;48553;50.766;2.900;2022-10-16T16:53:36;100739.34;;;17.99;68.64
60852;BME280;48553;50.766;2.900;2022-10-16T16:56:36;100733.38;;;17.97;68.72
60852;BME280;48553;50.766;2.900;2022-10-16T16:59:37;100745.25;;;17.94;68.78
60852;BME280;48553;50.766;2.900;2022-10-16T17:02:37;100736.91;;;17.90;68.87
60852;BME280;48553;50.766;2.900;2022-10-16T17:05:43;100743.63;;;17.86;68.84
60852;BME280;48553;50.766;2.900;2022-10-16T17:08:43;100763.41;;;17.84;68.94
60852;BME280;48553;50.766;2.900;2022-10-16T17:11:44;100754.22;;;17.80;69.03
60852;BME280;48553;50.766;2.900;2022-10-16T17:14:45;100755.78;;;17.78;69.20
60852;BME280;48553;50.766;2.900;2022-10-16T17:17:46;100761.34;;;17.78;69.29